sensor_id;sensor_type;location;lat;lon;timestamp;temperature;humidity
68804;SHT31;55787;52.678;13.314;2023-04-16T00:01:33;9.35;99.99
68804;SHT31;55787;52.678;13.314;2023-04-16T00:04:00;9.35;99.99
68804;SHT31;55787;52.678;13.314;2023-04-16T00:06:27;9.32;99.99
68804;SHT31;55787;52.678;13.314;2023-04-16T00:08:54;9.28;99.99
68804;SHT31;55787;52.678;13.314;2023-04-16T00:11:21;9.33;99.99
68804;SHT31;55787;52.678;13.314;2023-04-16T00:13:47;9.32;99.99
68804;SHT31;55787;52.678;13.314;2023-04-16T00:16:14;9.31;99.99
68804;SHT31;55787;52.678;13.314;2023-04-16T00:18:41;9.31;99.99
68804;SHT31;55787;52.678;13.314;2023-04-16T00:21:08;9.31;99.99
68804;SHT31;55787;52.678;13.314;2023-04-16T00:23:34;9.28;99.99
68804;SHT31;55787;52.678;13.314;2023-04-16T00:26:01;9.31;99.99
68804;SHT31;55787;52.678;13.314;2023-04-16T00:28:28;9.25;99.99
68804;SHT31;55787;52.678;13.314;2023-04-16T00:30:54;9.24;99.99
68804;SHT31;55787;52.678;13.314;2023-04-16T00:33:23;9.22;99.99
68804;SHT31;55787;52.678;13.314;2023-04-16T00:35:50;9.28;99.99
68804;SHT31;55787;52.678;13.314;2023-04-16T00:38:16;9.26;99.99
68804;SHT31;55787;52.678;13.314;2023-04-16T00:40:43;9.29;99.99
68804;SHT31;55787;52.678;13.314;2023-04-16T00:43:09;9.31;99.70
68804;SHT31;55787;52.678;13.314;2023-04-16T00:45:36;9.29;99.91
68804;SHT31;55787;52.678;13.314;2023-04-16T00:48:03;9.25;99.97
68804;SHT31;55787;52.678;13.314;2023-04-16T00:50:32;9.26;99.99
68804;SHT31;55787;52.678;13.314;2023-04-16T00:52:59;9.28;99.94
68804;SHT31;55787;52.678;13.314;2023-04-16T00:55:26;9.25;99.95
68804;SHT31;55787;52.678;13.314;2023-04-16T00:57:53;9.24;99.99
68804;SHT31;55787;52.678;13.314;2023-04-16T01:00:20;9.19;99.99
68804;SHT31;55787;52.678;13.314;2023-04-16T01:02:47;9.21;99.99
68804;SHT31;55787;52.678;13.314;2023-04-16T01:05:14;9.21;99.99
68804;SHT31;55787;52.678;13.314;2023-04-16T01:07:40;9.21;99.99
68804;SHT31;55787;52.678;13.314;2023-04-16T01:10:07;9.24;99.80
68804;SHT31;55787;52.678;13.314;2023-04-16T01:12:34;9.18;99.78
68804;SHT31;55787;52.678;13.314;2023-04-16T01:15:01;9.16;99.86
68804;SHT31;55787;52.678;13.314;2023-04-16T01:17:27;9.18;99.71
68804;SHT31;55787;52.678;13.314;2023-04-16T01:19:58;9.14;99.80
68804;SHT31;55787;52.678;13.314;2023-04-16T01:22:26;9.10;99.92
68804;SHT31;55787;52.678;13.314;2023-04-16T01:24:52;9.10;99.98
68804;SHT31;55787;52.678;13.314;2023-04-16T01:27:19;9.16;99.80
68804;SHT31;55787;52.678;13.314;2023-04-16T01:29:46;9.21;99.23
68804;SHT31;55787;52.678;13.314;2023-04-16T01:32:12;9.15;99.26
68804;SHT31;55787;52.678;13.314;2023-04-16T01:34:39;9.07;99.49
68804;SHT31;55787;52.678;13.314;2023-04-16T01:37:06;9.07;99.53
68804;SHT31;55787;52.678;13.314;2023-04-16T01:39:32;9.02;99.63
68804;SHT31;55787;52.678;13.314;2023-04-16T01:41:59;8.98;99.60
68804;SHT31;55787;52.678;13.314;2023-04-16T01:44:26;8.97;99.71
68804;SHT31;55787;52.678;13.314;2023-04-16T01:46:53;9.01;99.74
68804;SHT31;55787;52.678;13.314;2023-04-16T01:49:21;8.97;99.71
68804;SHT31;55787;52.678;13.314;2023-04-16T01:51:47;9.00;99.66
68804;SHT31;55787;52.678;13.314;2023-04-16T01:54:14;9.00;99.65
68804;SHT31;55787;52.678;13.314;2023-04-16T01:56:41;8.98;99.56
68804;SHT31;55787;52.678;13.314;2023-04-16T01:59:07;8.98;99.49
68804;SHT31;55787;52.678;13.314;2023-04-16T02:01:34;8.94;99.62
68804;SHT31;55787;52.678;13.314;2023-04-16T02:04:01;8.94;99.53
68804;SHT31;55787;52.678;13.314;2023-04-16T02:06:27;8.94;99.59
68804;SHT31;55787;52.678;13.314;2023-04-16T02:08:54;8.97;99.45
68804;SHT31;55787;52.678;13.314;2023-04-16T02:11:20;8.95;99.51
68804;SHT31;55787;52.678;13.314;2023-04-16T02:13:47;8.94;99.52
68804;SHT31;55787;52.678;13.314;2023-04-16T02:16:13;8.95;99.20
68804;SHT31;55787;52.678;13.314;2023-04-16T02:18:40;8.91;99.42
68804;SHT31;55787;52.678;13.314;2023-04-16T02:21:07;8.91;99.22
68804;SHT31;55787;52.678;13.314;2023-04-16T02:23:33;8.91;99.20
68804;SHT31;55787;52.678;13.314;2023-04-16T02:26:02;8.89;99.09
68804;SHT31;55787;52.678;13.314;2023-04-16T02:28:28;8.87;99.18
68804;SHT31;55787;52.678;13.314;2023-04-16T02:30:55;8.81;99.31
68804;SHT31;55787;52.678;13.314;2023-04-16T02:33:22;8.78;99.36
68804;SHT31;55787;52.678;13.314;2023-04-16T02:35:51;8.74;99.38
68804;SHT31;55787;52.678;13.314;2023-04-16T02:38:18;8.81;99.02
68804;SHT31;55787;52.678;13.314;2023-04-16T02:40:45;8.81;99.13
68804;SHT31;55787;52.678;13.314;2023-04-16T02:43:11;8.81;99.05
68804;SHT31;55787;52.678;13.314;2023-04-16T02:45:38;8.78;99.13
68804;SHT31;55787;52.678;13.314;2023-04-16T02:48:05;8.77;98.85
68804;SHT31;55787;52.678;13.314;2023-04-16T02:50:34;8.70;99.10
68804;SHT31;55787;52.678;13.314;2023-04-16T02:53:00;8.63;99.11
68804;SHT31;55787;52.678;13.314;2023-04-16T02:55:27;8.59;99.36
68804;SHT31;55787;52.678;13.314;2023-04-16T02:57:55;8.67;99.11
68804;SHT31;55787;52.678;13.314;2023-04-16T03:00:22;8.63;99.24
68804;SHT31;55787;52.678;13.314;2023-04-16T03:02:48;8.59;99.27
68804;SHT31;55787;52.678;13.314;2023-04-16T03:05:15;8.64;99.27
68804;SHT31;55787;52.678;13.314;2023-04-16T03:07:42;8.59;99.19
68804;SHT31;55787;52.678;13.314;2023-04-16T03:10:09;8.50;99.27
68804;SHT31;55787;52.678;13.314;2023-04-16T03:12:38;8.49;99.42
68804;SHT31;55787;52.678;13.314;2023-04-16T03:15:05;8.57;99.38
68804;SHT31;55787;52.678;13.314;2023-04-16T03:17:31;8.53;99.16
68804;SHT31;55787;52.678;13.314;2023-04-16T03:19:58;8.47;99.49
68804;SHT31;55787;52.678;13.314;2023-04-16T03:22:25;8.49;99.58
68804;SHT31;55787;52.678;13.314;2023-04-16T03:24:52;8.53;99.31
68804;SHT31;55787;52.678;13.314;2023-04-16T03:27:19;8.47;99.52
68804;SHT31;55787;52.678;13.314;2023-04-16T03:29:45;8.47;99.23
68804;SHT31;55787;52.678;13.314;2023-04-16T03:32:12;8.44;99.38
68804;SHT31;55787;52.678;13.314;2023-04-16T03:34:38;8.43;99.49
68804;SHT31;55787;52.678;13.314;2023-04-16T03:37:05;8.44;99.30
68804;SHT31;55787;52.678;13.314;2023-04-16T03:39:32;8.40;99.48
68804;SHT31;55787;52.678;13.314;2023-04-16T03:41:59;8.37;99.69
68804;SHT31;55787;52.678;13.314;2023-04-16T03:44:28;8.34;99.80
68804;SHT31;55787;52.678;13.314;2023-04-16T03:46:54;8.33;99.87
68804;SHT31;55787;52.678;13.314;2023-04-16T03:49:21;8.33;99.95
68804;SHT31;55787;52.678;13.314;2023-04-16T03:51:48;8.37;99.84
68804;SHT31;55787;52.678;13.314;2023-04-16T03:54:14;8.39;99.77
68804;SHT31;55787;52.678;13.314;2023-04-16T03:56:41;8.40;99.84
68804;SHT31;55787;52.678;13.314;2023-04-16T03:59:08;8.40;99.66
68804;SHT31;55787;52.678;13.314;2023-04-16T04:01:35;8.39;99.63
68804;SHT31;55787;52.678;13.314;2023-04-16T04:04:02;8.43;99.63
68804;SHT31;55787;52.678;13.314;2023-04-16T04:06:28;8.39;99.31
68804;SHT31;55787;52.678;13.314;2023-04-16T04:08:55;8.34;99.69
68804;SHT31;55787;52.678;13.314;2023-04-16T04:11:22;8.33;99.74
68804;SHT31;55787;52.678;13.314;2023-04-16T04:13:48;8.29;99.89
68804;SHT31;55787;52.678;13.314;2023-04-16T04:16:15;8.30;99.89
68804;SHT31;55787;52.678;13.314;2023-04-16T04:18:41;8.39;99.84
68804;SHT31;55787;52.678;13.314;2023-04-16T04:21:10;8.36;99.84
68804;SHT31;55787;52.678;13.314;2023-04-16T04:23:36;8.37;99.60
68804;SHT31;55787;52.678;13.314;2023-04-16T04:26:03;8.33;99.79
68804;SHT31;55787;52.678;13.314;2023-04-16T04:28:31;8.33;99.87
68804;SHT31;55787;52.678;13.314;2023-04-16T04:30:58;8.37;99.84
68804;SHT31;55787;52.678;13.314;2023-04-16T04:33:27;8.32;99.85
68804;SHT31;55787;52.678;13.314;2023-04-16T04:35:53;8.32;99.83
68804;SHT31;55787;52.678;13.314;2023-04-16T04:38:21;8.34;99.80
68804;SHT31;55787;52.678;13.314;2023-04-16T04:40:51;8.33;99.74
68804;SHT31;55787;52.678;13.314;2023-04-16T04:43:19;8.40;99.79
68804;SHT31;55787;52.678;13.314;2023-04-16T04:45:46;8.36;99.71
68804;SHT31;55787;52.678;13.314;2023-04-16T04:48:14;8.39;99.76
68804;SHT31;55787;52.678;13.314;2023-04-16T04:50:41;8.33;99.84
68804;SHT31;55787;52.678;13.314;2023-04-16T04:53:08;8.36;99.87
68804;SHT31;55787;52.678;13.314;2023-04-16T04:55:40;8.40;99.86
68804;SHT31;55787;52.678;13.314;2023-04-16T04:58:07;8.44;99.81
68804;SHT31;55787;52.678;13.314;2023-04-16T05:00:34;8.42;99.80
68804;SHT31;55787;52.678;13.314;2023-04-16T05:03:02;8.44;99.50
68804;SHT31;55787;52.678;13.314;2023-04-16T05:05:29;8.40;99.56
68804;SHT31;55787;52.678;13.314;2023-04-16T05:07:56;8.34;99.71
68804;SHT31;55787;52.678;13.314;2023-04-16T05:10:23;8.44;99.83
68804;SHT31;55787;52.678;13.314;2023-04-16T05:12:49;8.42;99.58
68804;SHT31;55787;52.678;13.314;2023-04-16T05:15:16;8.49;99.34
68804;SHT31;55787;52.678;13.314;2023-04-16T05:17:43;8.52;99.33
68804;SHT31;55787;52.678;13.314;2023-04-16T05:20:10;8.47;99.51
68804;SHT31;55787;52.678;13.314;2023-04-16T05:22:36;8.46;99.61
68804;SHT31;55787;52.678;13.314;2023-04-16T05:25:04;8.50;99.57
68804;SHT31;55787;52.678;13.314;2023-04-16T05:27:30;8.47;99.56
68804;SHT31;55787;52.678;13.314;2023-04-16T05:29:57;8.50;99.41
68804;SHT31;55787;52.678;13.314;2023-04-16T05:32:24;8.74;99.05
68804;SHT31;55787;52.678;13.314;2023-04-16T05:34:51;8.68;98.86
68804;SHT31;55787;52.678;13.314;2023-04-16T05:37:18;8.65;99.11
68804;SHT31;55787;52.678;13.314;2023-04-16T05:39:45;8.61;98.74
68804;SHT31;55787;52.678;13.314;2023-04-16T05:42:11;8.65;99.02
68804;SHT31;55787;52.678;13.314;2023-04-16T05:44:39;8.67;99.05
68804;SHT31;55787;52.678;13.314;2023-04-16T05:47:05;8.71;99.18
68804;SHT31;55787;52.678;13.314;2023-04-16T05:49:35;8.71;98.92
68804;SHT31;55787;52.678;13.314;2023-04-16T05:52:04;8.65;99.11
68804;SHT31;55787;52.678;13.314;2023-04-16T05:54:32;8.74;99.22
68804;SHT31;55787;52.678;13.314;2023-04-16T05:56:59;8.80;98.91
68804;SHT31;55787;52.678;13.314;2023-04-16T05:59:26;8.75;98.78
68804;SHT31;55787;52.678;13.314;2023-04-16T06:01:54;8.74;98.82
68804;SHT31;55787;52.678;13.314;2023-04-16T06:04:21;8.73;98.81
68804;SHT31;55787;52.678;13.314;2023-04-16T06:06:47;8.74;99.06
68804;SHT31;55787;52.678;13.314;2023-04-16T06:09:14;8.75;99.18
68804;SHT31;55787;52.678;13.314;2023-04-16T06:11:41;8.75;99.19
68804;SHT31;55787;52.678;13.314;2023-04-16T06:14:07;8.80;99.23
68804;SHT31;55787;52.678;13.314;2023-04-16T06:16:34;8.80;99.26
68804;SHT31;55787;52.678;13.314;2023-04-16T06:19:00;8.88;98.74
68804;SHT31;55787;52.678;13.314;2023-04-16T06:21:27;8.83;99.09
68804;SHT31;55787;52.678;13.314;2023-04-16T06:23:54;8.81;99.13
68804;SHT31;55787;52.678;13.314;2023-04-16T06:26:21;8.91;98.72
68804;SHT31;55787;52.678;13.314;2023-04-16T06:28:48;8.89;99.00
68804;SHT31;55787;52.678;13.314;2023-04-16T06:31:15;8.84;98.94
68804;SHT31;55787;52.678;13.314;2023-04-16T06:33:42;8.95;98.72
68804;SHT31;55787;52.678;13.314;2023-04-16T06:36:08;8.89;98.80
68804;SHT31;55787;52.678;13.314;2023-04-16T06:38:36;8.85;98.86
68804;SHT31;55787;52.678;13.314;2023-04-16T06:41:04;8.89;99.00
68804;SHT31;55787;52.678;13.314;2023-04-16T06:43:31;8.89;98.85
68804;SHT31;55787;52.678;13.314;2023-04-16T06:45:59;8.89;98.76
68804;SHT31;55787;52.678;13.314;2023-04-16T06:48:26;8.85;98.86
68804;SHT31;55787;52.678;13.314;2023-04-16T06:50:53;8.88;99.16
68804;SHT31;55787;52.678;13.314;2023-04-16T06:53:20;8.92;99.11
68804;SHT31;55787;52.678;13.314;2023-04-16T06:55:47;8.92;98.95
68804;SHT31;55787;52.678;13.314;2023-04-16T06:58:13;8.94;99.15
68804;SHT31;55787;52.678;13.314;2023-04-16T07:00:40;8.98;98.96
68804;SHT31;55787;52.678;13.314;2023-04-16T07:03:06;9.04;98.55
68804;SHT31;55787;52.678;13.314;2023-04-16T07:05:33;9.15;98.51
68804;SHT31;55787;52.678;13.314;2023-04-16T07:08:00;9.07;98.65
68804;SHT31;55787;52.678;13.314;2023-04-16T07:10:27;9.08;98.82
68804;SHT31;55787;52.678;13.314;2023-04-16T07:12:53;9.15;99.00
68804;SHT31;55787;52.678;13.314;2023-04-16T07:15:20;9.25;98.41
68804;SHT31;55787;52.678;13.314;2023-04-16T07:17:47;9.19;98.57
68804;SHT31;55787;52.678;13.314;2023-04-16T07:20:13;9.24;98.39
68804;SHT31;55787;52.678;13.314;2023-04-16T07:22:40;9.29;98.06
68804;SHT31;55787;52.678;13.314;2023-04-16T07:25:07;9.32;98.20
68804;SHT31;55787;52.678;13.314;2023-04-16T07:27:34;9.25;98.01
68804;SHT31;55787;52.678;13.314;2023-04-16T07:30:00;9.28;97.92
68804;SHT31;55787;52.678;13.314;2023-04-16T07:32:27;9.21;98.22
68804;SHT31;55787;52.678;13.314;2023-04-16T07:34:53;9.32;97.93
68804;SHT31;55787;52.678;13.314;2023-04-16T07:37:21;9.36;97.69
68804;SHT31;55787;52.678;13.314;2023-04-16T07:39:48;9.32;98.08
68804;SHT31;55787;52.678;13.314;2023-04-16T07:42:14;9.32;98.11
68804;SHT31;55787;52.678;13.314;2023-04-16T07:44:41;9.24;98.20
68804;SHT31;55787;52.678;13.314;2023-04-16T07:47:07;9.26;98.30
68804;SHT31;55787;52.678;13.314;2023-04-16T07:49:34;9.31;98.38
68804;SHT31;55787;52.678;13.314;2023-04-16T07:52:01;9.31;98.48
68804;SHT31;55787;52.678;13.314;2023-04-16T07:54:27;9.31;98.25
68804;SHT31;55787;52.678;13.314;2023-04-16T07:56:54;9.24;98.26
68804;SHT31;55787;52.678;13.314;2023-04-16T07:59:21;9.22;98.52
68804;SHT31;55787;52.678;13.314;2023-04-16T08:01:52;9.26;98.64
68804;SHT31;55787;52.678;13.314;2023-04-16T08:04:19;9.33;98.53
68804;SHT31;55787;52.678;13.314;2023-04-16T08:06:51;9.40;98.58
68804;SHT31;55787;52.678;13.314;2023-04-16T08:09:19;9.49;98.60
68804;SHT31;55787;52.678;13.314;2023-04-16T08:11:46;9.55;98.52
68804;SHT31;55787;52.678;13.314;2023-04-16T08:14:18;9.64;98.41
68804;SHT31;55787;52.678;13.314;2023-04-16T08:16:48;9.64;98.33
68804;SHT31;55787;52.678;13.314;2023-04-16T08:19:15;9.70;98.19
68804;SHT31;55787;52.678;13.314;2023-04-16T08:21:42;9.73;97.95
68804;SHT31;55787;52.678;13.314;2023-04-16T08:24:09;9.76;98.12
68804;SHT31;55787;52.678;13.314;2023-04-16T08:26:36;9.97;97.52
68804;SHT31;55787;52.678;13.314;2023-04-16T08:29:04;9.94;97.12
68804;SHT31;55787;52.678;13.314;2023-04-16T08:31:33;10.05;97.08
68804;SHT31;55787;52.678;13.314;2023-04-16T08:34:00;10.08;96.53
68804;SHT31;55787;52.678;13.314;2023-04-16T08:36:27;10.10;96.80
68804;SHT31;55787;52.678;13.314;2023-04-16T08:38:54;10.03;96.60
68804;SHT31;55787;52.678;13.314;2023-04-16T08:41:21;10.11;96.68
68804;SHT31;55787;52.678;13.314;2023-04-16T08:43:49;10.14;96.87
68804;SHT31;55787;52.678;13.314;2023-04-16T08:46:21;10.21;97.09
68804;SHT31;55787;52.678;13.314;2023-04-16T08:48:53;10.21;97.03
68804;SHT31;55787;52.678;13.314;2023-04-16T08:51:21;10.21;96.76
68804;SHT31;55787;52.678;13.314;2023-04-16T08:53:55;10.18;96.28
68804;SHT31;55787;52.678;13.314;2023-04-16T08:56:24;10.20;96.18
68804;SHT31;55787;52.678;13.314;2023-04-16T08:58:53;10.31;95.45
68804;SHT31;55787;52.678;13.314;2023-04-16T09:01:20;10.21;95.74
68804;SHT31;55787;52.678;13.314;2023-04-16T09:03:47;10.21;96.25
68804;SHT31;55787;52.678;13.314;2023-04-16T09:06:15;10.28;96.20
68804;SHT31;55787;52.678;13.314;2023-04-16T09:08:46;10.38;95.95
68804;SHT31;55787;52.678;13.314;2023-04-16T09:11:16;10.34;96.07
68804;SHT31;55787;52.678;13.314;2023-04-16T09:13:45;10.35;95.65
68804;SHT31;55787;52.678;13.314;2023-04-16T09:16:12;10.31;96.02
68804;SHT31;55787;52.678;13.314;2023-04-16T09:18:40;10.24;95.98
68804;SHT31;55787;52.678;13.314;2023-04-16T09:21:09;10.21;96.21
68804;SHT31;55787;52.678;13.314;2023-04-16T09:23:36;10.18;96.74
68804;SHT31;55787;52.678;13.314;2023-04-16T09:26:04;10.25;96.47
68804;SHT31;55787;52.678;13.314;2023-04-16T09:28:45;10.20;96.40
68804;SHT31;55787;52.678;13.314;2023-04-16T09:31:13;10.24;96.55
68804;SHT31;55787;52.678;13.314;2023-04-16T09:33:42;10.31;95.82
68804;SHT31;55787;52.678;13.314;2023-04-16T09:36:09;10.34;95.96
68804;SHT31;55787;52.678;13.314;2023-04-16T09:38:50;10.35;95.92
68804;SHT31;55787;52.678;13.314;2023-04-16T09:41:18;10.48;96.04
68804;SHT31;55787;52.678;13.314;2023-04-16T09:43:59;10.71;96.50
68804;SHT31;55787;52.678;13.314;2023-04-16T09:46:30;11.00;96.02
68804;SHT31;55787;52.678;13.314;2023-04-16T09:48:57;11.31;95.26
68804;SHT31;55787;52.678;13.314;2023-04-16T09:51:24;11.55;93.75
68804;SHT31;55787;52.678;13.314;2023-04-16T09:53:52;11.53;93.22
68804;SHT31;55787;52.678;13.314;2023-04-16T09:56:25;11.62;93.34
68804;SHT31;55787;52.678;13.314;2023-04-16T09:58:59;11.61;92.88
68804;SHT31;55787;52.678;13.314;2023-04-16T10:01:25;11.78;93.02
68804;SHT31;55787;52.678;13.314;2023-04-16T10:03:53;11.81;92.10
68804;SHT31;55787;52.678;13.314;2023-04-16T10:06:22;11.92;91.04
68804;SHT31;55787;52.678;13.314;2023-04-16T10:08:51;11.85;91.37
68804;SHT31;55787;52.678;13.314;2023-04-16T10:11:19;11.95;89.76
68804;SHT31;55787;52.678;13.314;2023-04-16T10:13:46;12.11;91.31
68804;SHT31;55787;52.678;13.314;2023-04-16T10:16:12;12.16;90.30
68804;SHT31;55787;52.678;13.314;2023-04-16T10:18:41;12.11;90.35
68804;SHT31;55787;52.678;13.314;2023-04-16T10:21:08;12.05;90.51
68804;SHT31;55787;52.678;13.314;2023-04-16T10:23:38;12.01;91.13
68804;SHT31;55787;52.678;13.314;2023-04-16T10:26:05;12.02;91.46
68804;SHT31;55787;52.678;13.314;2023-04-16T10:28:32;11.98;90.86
68804;SHT31;55787;52.678;13.314;2023-04-16T10:31:02;11.89;89.84
68804;SHT31;55787;52.678;13.314;2023-04-16T10:33:31;11.91;90.84
68804;SHT31;55787;52.678;13.314;2023-04-16T10:36:11;11.81;90.14
68804;SHT31;55787;52.678;13.314;2023-04-16T10:38:49;11.72;90.82
68804;SHT31;55787;52.678;13.314;2023-04-16T10:41:19;11.71;92.07
68804;SHT31;55787;52.678;13.314;2023-04-16T10:43:47;11.68;92.15
68804;SHT31;55787;52.678;13.314;2023-04-16T10:46:29;11.75;92.23
68804;SHT31;55787;52.678;13.314;2023-04-16T10:49:00;11.75;92.12
68804;SHT31;55787;52.678;13.314;2023-04-16T10:51:34;11.82;91.37
68804;SHT31;55787;52.678;13.314;2023-04-16T10:56:35;11.68;91.95
68804;SHT31;55787;52.678;13.314;2023-04-16T10:59:07;11.65;91.83
68804;SHT31;55787;52.678;13.314;2023-04-16T11:12:24;11.51;91.90
68804;SHT31;55787;52.678;13.314;2023-04-16T11:14:58;11.43;91.79
68804;SHT31;55787;52.678;13.314;2023-04-16T11:17:29;11.31;92.44
68804;SHT31;55787;52.678;13.314;2023-04-16T11:19:56;11.24;92.47
68804;SHT31;55787;52.678;13.314;2023-04-16T11:22:23;11.19;92.49
68804;SHT31;55787;52.678;13.314;2023-04-16T11:24:56;11.22;92.74
68804;SHT31;55787;52.678;13.314;2023-04-16T11:27:23;11.20;92.40
68804;SHT31;55787;52.678;13.314;2023-04-16T11:30:00;11.30;92.67
68804;SHT31;55787;52.678;13.314;2023-04-16T11:32:30;11.26;92.21
68804;SHT31;55787;52.678;13.314;2023-04-16T11:34:57;11.22;92.88
68804;SHT31;55787;52.678;13.314;2023-04-16T11:37:36;11.19;92.80
68804;SHT31;55787;52.678;13.314;2023-04-16T11:40:04;11.17;92.91
68804;SHT31;55787;52.678;13.314;2023-04-16T11:42:35;11.26;92.59
68804;SHT31;55787;52.678;13.314;2023-04-16T11:45:03;11.34;92.07
68804;SHT31;55787;52.678;13.314;2023-04-16T11:47:30;11.33;92.06
68804;SHT31;55787;52.678;13.314;2023-04-16T11:49:57;11.31;91.83
68804;SHT31;55787;52.678;13.314;2023-04-16T11:52:40;11.24;92.00
68804;SHT31;55787;52.678;13.314;2023-04-16T11:55:07;11.22;92.32
68804;SHT31;55787;52.678;13.314;2023-04-16T11:57:33;11.22;93.02
68804;SHT31;55787;52.678;13.314;2023-04-16T12:00:00;11.20;93.20
68804;SHT31;55787;52.678;13.314;2023-04-16T12:02:40;11.17;93.50
68804;SHT31;55787;52.678;13.314;2023-04-16T12:05:33;11.22;92.72
68804;SHT31;55787;52.678;13.314;2023-04-16T12:08:02;11.14;92.07
68804;SHT31;55787;52.678;13.314;2023-04-16T12:10:30;11.04;92.34
68804;SHT31;55787;52.678;13.314;2023-04-16T12:13:10;11.00;92.27
68804;SHT31;55787;52.678;13.314;2023-04-16T12:15:48;10.96;92.06
68804;SHT31;55787;52.678;13.314;2023-04-16T12:18:15;10.82;92.44
68804;SHT31;55787;52.678;13.314;2023-04-16T12:20:43;10.75;93.07
68804;SHT31;55787;52.678;13.314;2023-04-16T12:23:27;10.72;93.19
68804;SHT31;55787;52.678;13.314;2023-04-16T12:25:54;10.73;93.59
68804;SHT31;55787;52.678;13.314;2023-04-16T12:30:54;10.73;93.39
68804;SHT31;55787;52.678;13.314;2023-04-16T12:33:20;10.79;93.91
68804;SHT31;55787;52.678;13.314;2023-04-16T12:35:47;10.82;93.67
68804;SHT31;55787;52.678;13.314;2023-04-16T12:38:14;10.88;93.77
68804;SHT31;55787;52.678;13.314;2023-04-16T12:40:40;10.93;93.20
68804;SHT31;55787;52.678;13.314;2023-04-16T12:43:08;11.00;93.25
68804;SHT31;55787;52.678;13.314;2023-04-16T12:45:35;11.02;93.02
68804;SHT31;55787;52.678;13.314;2023-04-16T12:48:02;11.10;93.25
68804;SHT31;55787;52.678;13.314;2023-04-16T12:50:29;11.20;92.51
68804;SHT31;55787;52.678;13.314;2023-04-16T12:52:56;11.26;92.02
68804;SHT31;55787;52.678;13.314;2023-04-16T12:55:23;11.30;91.89
68804;SHT31;55787;52.678;13.314;2023-04-16T12:57:50;11.43;91.99
68804;SHT31;55787;52.678;13.314;2023-04-16T13:00:18;11.68;91.33
68804;SHT31;55787;52.678;13.314;2023-04-16T13:02:46;11.79;90.39
68804;SHT31;55787;52.678;13.314;2023-04-16T13:05:13;11.96;90.43
68804;SHT31;55787;52.678;13.314;2023-04-16T13:07:44;12.19;89.84
68804;SHT31;55787;52.678;13.314;2023-04-16T13:10:11;12.26;87.85
68804;SHT31;55787;52.678;13.314;2023-04-16T13:12:38;12.44;88.13
68804;SHT31;55787;52.678;13.314;2023-04-16T13:15:05;12.29;87.72
68804;SHT31;55787;52.678;13.314;2023-04-16T13:17:31;12.32;88.24
68804;SHT31;55787;52.678;13.314;2023-04-16T13:19:58;12.52;87.93
68804;SHT31;55787;52.678;13.314;2023-04-16T13:22:25;12.34;86.82
68804;SHT31;55787;52.678;13.314;2023-04-16T13:24:51;12.30;87.94
68804;SHT31;55787;52.678;13.314;2023-04-16T13:27:18;12.23;88.09
68804;SHT31;55787;52.678;13.314;2023-04-16T13:29:45;12.15;88.49
68804;SHT31;55787;52.678;13.314;2023-04-16T13:32:12;12.05;88.69
68804;SHT31;55787;52.678;13.314;2023-04-16T13:34:40;12.03;88.57
68804;SHT31;55787;52.678;13.314;2023-04-16T13:37:06;11.92;89.40
68804;SHT31;55787;52.678;13.314;2023-04-16T13:39:33;11.82;89.91
68804;SHT31;55787;52.678;13.314;2023-04-16T13:41:59;11.81;90.12
68804;SHT31;55787;52.678;13.314;2023-04-16T13:44:26;11.77;89.28
68804;SHT31;55787;52.678;13.314;2023-04-16T13:46:53;11.65;89.36
68804;SHT31;55787;52.678;13.314;2023-04-16T13:49:19;11.57;88.88
68804;SHT31;55787;52.678;13.314;2023-04-16T13:51:46;11.47;89.20
68804;SHT31;55787;52.678;13.314;2023-04-16T13:54:12;11.40;88.78
68804;SHT31;55787;52.678;13.314;2023-04-16T13:56:39;11.35;89.31
68804;SHT31;55787;52.678;13.314;2023-04-16T13:59:06;11.34;89.63
68804;SHT31;55787;52.678;13.314;2023-04-16T14:01:33;11.30;89.57
68804;SHT31;55787;52.678;13.314;2023-04-16T14:04:00;11.27;88.55
68804;SHT31;55787;52.678;13.314;2023-04-16T14:06:32;11.23;89.09
68804;SHT31;55787;52.678;13.314;2023-04-16T14:08:59;11.16;89.33
68804;SHT31;55787;52.678;13.314;2023-04-16T14:11:26;11.17;89.58
68804;SHT31;55787;52.678;13.314;2023-04-16T14:13:53;11.23;88.66
68804;SHT31;55787;52.678;13.314;2023-04-16T14:16:20;11.28;88.72
68804;SHT31;55787;52.678;13.314;2023-04-16T14:18:47;11.24;88.99
68804;SHT31;55787;52.678;13.314;2023-04-16T14:21:14;11.24;88.56
68804;SHT31;55787;52.678;13.314;2023-04-16T14:23:40;11.24;89.07
68804;SHT31;55787;52.678;13.314;2023-04-16T14:26:07;11.26;89.01
68804;SHT31;55787;52.678;13.314;2023-04-16T14:28:34;11.31;88.91
68804;SHT31;55787;52.678;13.314;2023-04-16T14:31:01;11.30;88.96
68804;SHT31;55787;52.678;13.314;2023-04-16T14:33:27;11.27;89.34
68804;SHT31;55787;52.678;13.314;2023-04-16T14:35:54;11.26;89.56
68804;SHT31;55787;52.678;13.314;2023-04-16T14:38:21;11.28;89.72
68804;SHT31;55787;52.678;13.314;2023-04-16T14:40:48;11.34;89.57
68804;SHT31;55787;52.678;13.314;2023-04-16T14:43:15;11.33;89.67
68804;SHT31;55787;52.678;13.314;2023-04-16T14:45:41;11.33;89.38
68804;SHT31;55787;52.678;13.314;2023-04-16T14:48:08;11.34;88.78
68804;SHT31;55787;52.678;13.314;2023-04-16T14:50:34;11.43;89.20
68804;SHT31;55787;52.678;13.314;2023-04-16T14:53:03;11.44;88.94
68804;SHT31;55787;52.678;13.314;2023-04-16T14:55:30;11.38;89.13
68804;SHT31;55787;52.678;13.314;2023-04-16T14:57:57;11.38;89.21
68804;SHT31;55787;52.678;13.314;2023-04-16T15:00:25;11.43;88.85
68804;SHT31;55787;52.678;13.314;2023-04-16T15:02:53;11.40;89.24
68804;SHT31;55787;52.678;13.314;2023-04-16T15:05:20;11.40;89.28
68804;SHT31;55787;52.678;13.314;2023-04-16T15:07:48;11.48;89.00
68804;SHT31;55787;52.678;13.314;2023-04-16T15:10:14;11.44;89.10
68804;SHT31;55787;52.678;13.314;2023-04-16T15:12:42;11.41;89.25
68804;SHT31;55787;52.678;13.314;2023-04-16T15:15:10;11.38;89.86
68804;SHT31;55787;52.678;13.314;2023-04-16T15:17:36;11.41;90.02
68804;SHT31;55787;52.678;13.314;2023-04-16T15:20:04;11.43;89.52
68804;SHT31;55787;52.678;13.314;2023-04-16T15:22:34;11.43;89.53
68804;SHT31;55787;52.678;13.314;2023-04-16T15:25:02;11.44;89.10
68804;SHT31;55787;52.678;13.314;2023-04-16T15:27:29;11.38;89.44
68804;SHT31;55787;52.678;13.314;2023-04-16T15:29:56;11.40;89.29
68804;SHT31;55787;52.678;13.314;2023-04-16T15:32:24;11.37;88.76
68804;SHT31;55787;52.678;13.314;2023-04-16T15:34:51;11.31;88.87
68804;SHT31;55787;52.678;13.314;2023-04-16T15:37:17;11.27;89.21
68804;SHT31;55787;52.678;13.314;2023-04-16T15:39:44;11.22;89.03
68804;SHT31;55787;52.678;13.314;2023-04-16T15:42:11;11.16;89.65
68804;SHT31;55787;52.678;13.314;2023-04-16T15:44:38;11.10;89.86